sensor_id;sensor_type;location;lat;lon;timestamp;pressure;altitude;pressure_sealevel;temperature;humidity
46718;BME280;32448;44.960;-0.698;2022-08-19T00:01:54;101786.84;;;17.87;100.00
46718;BME280;32448;44.960;-0.698;2022-08-19T00:04:23;101780.66;;;17.85;100.00
46718;BME280;32448;44.960;-0.698;2022-08-19T00:06:50;101778.91;;;17.88;100.00
46718;BME280;32448;44.960;-0.698;2022-08-19T00:09:18;101768.31;;;17.90;100.00
46718;BME280;32448;44.960;-0.698;2022-08-19T00:11:45;101772.72;;;17.92;100.00
46718;BME280;32448;44.960;-0.698;2022-08-19T00:14:14;101769.22;;;17.95;100.00
46718;BME280;32448;44.960;-0.698;2022-08-19T00:16:42;101778.03;;;18.01;100.00
46718;BME280;32448;44.960;-0.698;2022-08-19T00:19:09;101778.03;;;17.95;100.00
46718;BME280;32448;44.960;-0.698;2022-08-19T00:21:35;101758.63;;;17.87;100.00
46718;BME280;32448;44.960;-0.698;2022-08-19T00:24:06;101755.06;;;17.83;100.00
46718;BME280;32448;44.960;-0.698;2022-08-19T00:26:33;101762.16;;;17.89;100.00
46718;BME280;32448;44.960;-0.698;2022-08-19T00:28:58;101775.38;;;17.95;100.00
46718;BME280;32448;44.960;-0.698;2022-08-19T00:31:26;101770.97;;;17.96;100.00
46718;BME280;32448;44.960;-0.698;2022-08-19T00:33:53;101766.56;;;17.89;100.00
46718;BME280;32448;44.960;-0.698;2022-08-19T00:36:20;101762.13;;;17.85;100.00
46718;BME280;32448;44.960;-0.698;2022-08-19T00:38:46;101775.38;;;17.88;100.00
46718;BME280;32448;44.960;-0.698;2022-08-19T00:41:18;101760.34;;;17.77;100.00
46718;BME280;32448;44.960;-0.698;2022-08-19T00:44:06;101767.38;;;17.72;100.00
46718;BME280;32448;44.960;-0.698;2022-08-19T00:46:34;101762.91;;;17.62;100.00
46718;BME280;32448;44.960;-0.698;2022-08-19T00:49:11;101768.25;;;17.67;100.00
46718;BME280;32448;44.960;-0.698;2022-08-19T00:51:41;101766.44;;;17.61;100.00
46718;BME280;32448;44.960;-0.698;2022-08-19T00:54:08;101767.31;;;17.56;100.00
46718;BME280;32448;44.960;-0.698;2022-08-19T00:56:35;101777.00;;;17.60;100.00
46718;BME280;32448;44.960;-0.698;2022-08-19T00:59:02;101771.69;;;17.52;100.00
46718;BME280;32448;44.960;-0.698;2022-08-19T01:01:33;101779.63;;;17.55;100.00
46718;BME280;32448;44.960;-0.698;2022-08-19T01:03:59;101775.19;;;17.50;100.00
46718;BME280;32448;44.960;-0.698;2022-08-19T01:06:26;101774.28;;;17.46;100.00
46718;BME280;32448;44.960;-0.698;2022-08-19T01:08:51;101776.00;;;17.36;100.00
46718;BME280;32448;44.960;-0.698;2022-08-19T01:11:17;101751.25;;;17.18;100.00
46718;BME280;32448;44.960;-0.698;2022-08-19T01:13:44;101785.69;;;17.31;100.00
46718;BME280;32448;44.960;-0.698;2022-08-19T01:16:12;101778.56;;;17.26;100.00
46718;BME280;32448;44.960;-0.698;2022-08-19T01:18:41;101784.72;;;17.20;100.00
46718;BME280;32448;44.960;-0.698;2022-08-19T01:21:34;101769.75;;;17.21;100.00
46718;BME280;32448;44.960;-0.698;2022-08-19T01:24:03;101768.00;;;17.23;100.00
46718;BME280;32448;44.960;-0.698;2022-08-19T01:26:30;101775.94;;;17.21;100.00
46718;BME280;32448;44.960;-0.698;2022-08-19T01:28:58;101760.94;;;17.19;100.00
46718;BME280;32448;44.960;-0.698;2022-08-19T01:31:26;101761.84;;;17.21;100.00
46718;BME280;32448;44.960;-0.698;2022-08-19T01:33:56;101767.09;;;17.24;100.00
46718;BME280;32448;44.960;-0.698;2022-08-19T01:36:27;101760.97;;;17.22;100.00
46718;BME280;32448;44.960;-0.698;2022-08-19T01:38:53;101767.13;;;17.27;100.00
46718;BME280;32448;44.960;-0.698;2022-08-19T01:41:19;101762.75;;;17.27;100.00
46718;BME280;32448;44.960;-0.698;2022-08-19T01:43:45;101761.84;;;17.27;100.00
46718;BME280;32448;44.960;-0.698;2022-08-19T01:46:11;101759.22;;;17.28;100.00
46718;BME280;32448;44.960;-0.698;2022-08-19T01:48:40;101754.81;;;17.29;100.00
46718;BME280;32448;44.960;-0.698;2022-08-19T01:51:07;101748.63;;;17.27;100.00
46718;BME280;32448;44.960;-0.698;2022-08-19T01:53:34;101730.13;;;17.21;100.00
46718;BME280;32448;44.960;-0.698;2022-08-19T01:56:01;101753.94;;;17.30;100.00
46718;BME280;32448;44.960;-0.698;2022-08-19T01:58:33;101754.84;;;17.32;100.00
46718;BME280;32448;44.960;-0.698;2022-08-19T02:01:01;101749.50;;;17.24;100.00
46718;BME280;32448;44.960;-0.698;2022-08-19T02:03:27;101750.41;;;17.22;100.00
46718;BME280;32448;44.960;-0.698;2022-08-19T02:05:59;101765.38;;;17.27;100.00
46718;BME280;32448;44.960;-0.698;2022-08-19T02:08:30;101759.19;;;17.25;100.00
46718;BME280;32448;44.960;-0.698;2022-08-19T02:10:56;101768.03;;;17.29;100.00
46718;BME280;32448;44.960;-0.698;2022-08-19T02:13:23;101756.56;;;17.22;100.00
46718;BME280;32448;44.960;-0.698;2022-08-19T02:15:49;101741.53;;;17.17;100.00
46718;BME280;32448;44.960;-0.698;2022-08-19T02:18:15;101757.44;;;17.26;100.00
46718;BME280;32448;44.960;-0.698;2022-08-19T02:20:42;101743.34;;;17.21;100.00
46718;BME280;32448;44.960;-0.698;2022-08-19T02:23:11;101752.19;;;17.29;100.00
46718;BME280;32448;44.960;-0.698;2022-08-19T02:25:37;101750.38;;;17.25;100.00
46718;BME280;32448;44.960;-0.698;2022-08-19T02:28:04;101744.22;;;17.20;100.00
46718;BME280;32448;44.960;-0.698;2022-08-19T02:30:30;101751.25;;;17.21;100.00
46718;BME280;32448;44.960;-0.698;2022-08-19T02:32:56;101748.59;;;17.19;100.00
46718;BME280;32448;44.960;-0.698;2022-08-19T02:35:23;101757.38;;;17.10;100.00
46718;BME280;32448;44.960;-0.698;2022-08-19T02:37:49;101740.56;;;16.99;100.00
46718;BME280;32448;44.960;-0.698;2022-08-19T02:40:34;101759.06;;;17.04;100.00
46718;BME280;32448;44.960;-0.698;2022-08-19T02:43:07;101756.44;;;17.05;100.00
46718;BME280;32448;44.960;-0.698;2022-08-19T02:45:38;101754.66;;;17.03;100.00
46718;BME280;32448;44.960;-0.698;2022-08-19T02:48:05;101751.09;;;16.95;100.00
46718;BME280;32448;44.960;-0.698;2022-08-19T02:50:32;101755.47;;;16.88;100.00
46718;BME280;32448;44.960;-0.698;2022-08-19T02:52:57;101761.59;;;16.86;100.00
46718;BME280;32448;44.960;-0.698;2022-08-19T02:55:23;101772.16;;;16.84;100.00
46718;BME280;32448;44.960;-0.698;2022-08-19T02:57:49;101769.47;;;16.81;100.00
46718;BME280;32448;44.960;-0.698;2022-08-19T03:00:15;101763.22;;;16.70;100.00
46718;BME280;32448;44.960;-0.698;2022-08-19T03:02:42;101773.78;;;16.68;100.00
46718;BME280;32448;44.960;-0.698;2022-08-19T03:05:09;101759.59;;;16.60;100.00
46718;BME280;32448;44.960;-0.698;2022-08-19T03:07:36;101773.75;;;16.64;100.00
46718;BME280;32448;44.960;-0.698;2022-08-19T03:10:02;101777.31;;;16.66;100.00
46718;BME280;32448;44.960;-0.698;2022-08-19T03:12:28;101766.63;;;16.58;100.00
46718;BME280;32448;44.960;-0.698;2022-08-19T03:14:54;101781.59;;;16.59;100.00
46718;BME280;32448;44.960;-0.698;2022-08-19T03:17:19;101778.94;;;16.58;100.00
46718;BME280;32448;44.960;-0.698;2022-08-19T03:19:45;101773.69;;;16.61;100.00
46718;BME280;32448;44.960;-0.698;2022-08-19T03:22:11;101771.09;;;16.62;100.00
46718;BME280;32448;44.960;-0.698;2022-08-19T03:24:37;101779.03;;;16.64;100.00
46718;BME280;32448;44.960;-0.698;2022-08-19T03:27:04;101772.91;;;16.69;100.00
46718;BME280;32448;44.960;-0.698;2022-08-19T03:29:31;101779.03;;;16.64;100.00
46718;BME280;32448;44.960;-0.698;2022-08-19T03:32:03;101761.28;;;16.51;100.00
46718;BME280;32448;44.960;-0.698;2022-08-19T03:34:30;101782.47;;;16.58;100.00
46718;BME280;32448;44.960;-0.698;2022-08-19T03:37:02;101752.41;;;16.39;100.00
46718;BME280;32448;44.960;-0.698;2022-08-19T03:39:28;101774.44;;;16.48;100.00
46718;BME280;32448;44.960;-0.698;2022-08-19T03:41:54;101784.16;;;16.46;100.00
46718;BME280;32448;44.960;-0.698;2022-08-19T03:44:25;101782.34;;;16.43;100.00
46718;BME280;32448;44.960;-0.698;2022-08-19T03:46:54;101778.75;;;16.36;100.00
46718;BME280;32448;44.960;-0.698;2022-08-19T03:49:22;101778.69;;;16.29;100.00
46718;BME280;32448;44.960;-0.698;2022-08-19T03:51:49;101765.47;;;16.27;100.00
46718;BME280;32448;44.960;-0.698;2022-08-19T03:54:18;101770.75;;;16.27;100.00
46718;BME280;32448;44.960;-0.698;2022-08-19T03:56:45;101764.56;;;16.25;100.00
46718;BME280;32448;44.960;-0.698;2022-08-19T03:59:16;101769.84;;;16.25;100.00
46718;BME280;32448;44.960;-0.698;2022-08-19T04:01:42;101774.25;;;16.22;100.00
46718;BME280;32448;44.960;-0.698;2022-08-19T04:04:08;101760.97;;;16.16;100.00
46718;BME280;32448;44.960;-0.698;2022-08-19T04:06:36;101752.09;;;16.06;100.00
46718;BME280;32448;44.960;-0.698;2022-08-19T04:09:05;101777.63;;;16.13;100.00
46718;BME280;32448;44.960;-0.698;2022-08-19T04:11:35;101758.19;;;15.99;100.00
46718;BME280;32448;44.960;-0.698;2022-08-19T04:14:01;101774.03;;;16.05;100.00
46718;BME280;32448;44.960;-0.698;2022-08-19T04:16:28;101781.06;;;16.05;100.00
46718;BME280;32448;44.960;-0.698;2022-08-19T04:18:55;101777.47;;;15.96;100.00
46718;BME280;32448;44.960;-0.698;2022-08-19T04:21:24;101773.00;;;15.91;100.00
46718;BME280;32448;44.960;-0.698;2022-08-19T04:23:52;101785.34;;;15.93;100.00
46718;BME280;32448;44.960;-0.698;2022-08-19T04:26:21;101783.53;;;15.86;100.00
46718;BME280;32448;44.960;-0.698;2022-08-19T04:28:48;101780.00;;;15.86;100.00
46718;BME280;32448;44.960;-0.698;2022-08-19T04:31:16;101778.19;;;15.82;100.00
46718;BME280;32448;44.960;-0.698;2022-08-19T04:33:45;101784.34;;;15.82;100.00
46718;BME280;32448;44.960;-0.698;2022-08-19T04:36:20;101780.72;;;15.74;100.00
46718;BME280;32448;44.960;-0.698;2022-08-19T04:38:48;101771.00;;;15.69;100.00
46718;BME280;32448;44.960;-0.698;2022-08-19T04:41:14;101785.06;;;15.71;100.00
46718;BME280;32448;44.960;-0.698;2022-08-19T04:43:58;101786.69;;;15.59;100.00
46718;BME280;32448;44.960;-0.698;2022-08-19T04:46:24;101793.81;;;15.65;100.00
46718;BME280;32448;44.960;-0.698;2022-08-19T04:48:50;101780.50;;;15.54;100.00
46718;BME280;32448;44.960;-0.698;2022-08-19T04:51:16;101788.50;;;15.62;100.00
46718;BME280;32448;44.960;-0.698;2022-08-19T04:53:42;101792.84;;;15.60;100.00
46718;BME280;32448;44.960;-0.698;2022-08-19T04:56:11;101791.94;;;15.58;100.00
46718;BME280;32448;44.960;-0.698;2022-08-19T04:58:39;101797.06;;;15.49;100.00
46718;BME280;32448;44.960;-0.698;2022-08-19T05:01:09;101794.41;;;15.47;100.00
46718;BME280;32448;44.960;-0.698;2022-08-19T05:03:36;101799.63;;;15.43;100.00
46718;BME280;32448;44.960;-0.698;2022-08-19T05:06:13;101797.81;;;15.39;100.00
46718;BME280;32448;44.960;-0.698;2022-08-19T05:08:40;101795.16;;;15.39;100.00
46718;BME280;32448;44.960;-0.698;2022-08-19T05:11:18;101801.31;;;15.39;100.00
46718;BME280;32448;44.960;-0.698;2022-08-19T05:13:47;101799.47;;;15.32;100.00
46718;BME280;32448;44.960;-0.698;2022-08-19T05:16:16;101773.03;;;15.23;100.00
46718;BME280;32448;44.960;-0.698;2022-08-19T05:18:43;101791.56;;;15.30;100.00
46718;BME280;32448;44.960;-0.698;2022-08-19T05:21:28;101791.56;;;15.30;100.00
46718;BME280;32448;44.960;-0.698;2022-08-19T05:24:13;101796.75;;;15.26;100.00
46718;BME280;32448;44.960;-0.698;2022-08-19T05:26:43;101806.44;;;15.28;100.00
46718;BME280;32448;44.960;-0.698;2022-08-19T05:29:10;101808.13;;;15.25;100.00
46718;BME280;32448;44.960;-0.698;2022-08-19T05:31:36;101812.53;;;15.23;100.00
46718;BME280;32448;44.960;-0.698;2022-08-19T05:34:04;101811.66;;;15.25;100.00
46718;BME280;32448;44.960;-0.698;2022-08-19T05:36:38;101796.53;;;15.11;100.00
46718;BME280;32448;44.960;-0.698;2022-08-19T05:39:06;101811.63;;;15.22;100.00
46718;BME280;32448;44.960;-0.698;2022-08-19T05:41:32;101805.34;;;15.13;100.00
46718;BME280;32448;44.960;-0.698;2022-08-19T05:44:01;101824.72;;;15.18;100.00
46718;BME280;32448;44.960;-0.698;2022-08-19T05:46:28;101809.75;;;15.15;100.00
46718;BME280;32448;44.960;-0.698;2022-08-19T05:48:54;101826.56;;;15.22;100.00
46718;BME280;32448;44.960;-0.698;2022-08-19T05:51:22;101816.84;;;15.19;100.00
46718;BME280;32448;44.960;-0.698;2022-08-19T05:53:48;101809.06;;;15.27;100.00
46718;BME280;32448;44.960;-0.698;2022-08-19T05:56:16;101813.50;;;15.31;100.00
46718;BME280;32448;44.960;-0.698;2022-08-19T05:58:43;101819.72;;;15.35;100.00
46718;BME280;32448;44.960;-0.698;2022-08-19T06:01:12;101814.53;;;15.41;100.00
46718;BME280;32448;44.960;-0.698;2022-08-19T06:03:40;101824.31;;;15.49;100.00
46718;BME280;32448;44.960;-0.698;2022-08-19T06:06:07;101826.19;;;15.55;100.00
46718;BME280;32448;44.960;-0.698;2022-08-19T06:08:35;101824.53;;;15.63;100.00
46718;BME280;32448;44.960;-0.698;2022-08-19T06:11:31;101828.09;;;15.70;100.00
46718;BME280;32448;44.960;-0.698;2022-08-19T06:14:01;101825.56;;;15.76;100.00
46718;BME280;32448;44.960;-0.698;2022-08-19T06:16:28;101817.69;;;15.80;100.00
46718;BME280;32448;44.960;-0.698;2022-08-19T06:18:59;101811.56;;;15.78;100.00
46718;BME280;32448;44.960;-0.698;2022-08-19T06:21:28;101826.63;;;15.90;100.00
46718;BME280;32448;44.960;-0.698;2022-08-19T06:23:55;101822.25;;;15.93;100.00
46718;BME280;32448;44.960;-0.698;2022-08-19T06:26:21;101837.31;;;16.03;100.00
46718;BME280;32448;44.960;-0.698;2022-08-19T06:28:48;101834.72;;;16.05;100.00
46718;BME280;32448;44.960;-0.698;2022-08-19T06:31:16;101832.16;;;16.14;100.00
46718;BME280;32448;44.960;-0.698;2022-08-19T06:33:46;101834.94;;;16.26;100.00
46718;BME280;32448;44.960;-0.698;2022-08-19T06:36:23;101843.91;;;16.42;100.00
46718;BME280;32448;44.960;-0.698;2022-08-19T06:39:23;101835.28;;;16.57;100.00
46718;BME280;32448;44.960;-0.698;2022-08-19T06:41:51;101832.75;;;16.69;100.00
46718;BME280;32448;44.960;-0.698;2022-08-19T06:44:28;101843.44;;;16.83;100.00
46718;BME280;32448;44.960;-0.698;2022-08-19T06:46:55;101836.47;;;16.94;100.00
46718;BME280;32448;44.960;-0.698;2022-08-19T06:49:27;101833.03;;;16.99;100.00
46718;BME280;32448;44.960;-0.698;2022-08-19T06:51:57;101838.41;;;17.15;100.00
46718;BME280;32448;44.960;-0.698;2022-08-19T06:54:24;101834.97;;;17.29;100.00
46718;BME280;32448;44.960;-0.698;2022-08-19T06:56:56;101849.16;;;17.46;100.00
46718;BME280;32448;44.960;-0.698;2022-08-19T06:59:24;101843.06;;;17.58;100.00
46718;BME280;32448;44.960;-0.698;2022-08-19T07:01:56;101840.50;;;17.67;100.00
46718;BME280;32448;44.960;-0.698;2022-08-19T07:04:26;101837.91;;;17.79;100.00
46718;BME280;32448;44.960;-0.698;2022-08-19T07:07:07;101845.06;;;17.96;100.00
46718;BME280;32448;44.960;-0.698;2022-08-19T07:09:39;101861.84;;;18.07;100.00
46718;BME280;32448;44.960;-0.698;2022-08-19T07:12:11;101811.56;;;17.98;100.00
46718;BME280;32448;44.960;-0.698;2022-08-19T07:14:38;101862.81;;;18.35;100.00
46718;BME280;32448;44.960;-0.698;2022-08-19T07:17:07;101862.84;;;18.48;100.00
46718;BME280;32448;44.960;-0.698;2022-08-19T07:19:35;101867.31;;;18.60;100.00
46718;BME280;32448;44.960;-0.698;2022-08-19T07:22:08;101869.97;;;18.72;100.00
46718;BME280;32448;44.960;-0.698;2022-08-19T07:24:38;101866.47;;;18.87;100.00
46718;BME280;32448;44.960;-0.698;2022-08-19T07:27:07;101865.56;;;19.00;100.00
46718;BME280;32448;44.960;-0.698;2022-08-19T07:29:39;101867.31;;;19.13;100.00
46718;BME280;32448;44.960;-0.698;2022-08-19T07:32:06;101873.50;;;19.26;100.00
46718;BME280;32448;44.960;-0.698;2022-08-19T07:34:32;101872.59;;;19.44;100.00
46718;BME280;32448;44.960;-0.698;2022-08-19T07:37:06;101862.91;;;19.52;100.00
46718;BME280;32448;44.960;-0.698;2022-08-19T07:39:36;101869.91;;;19.67;100.00
46718;BME280;32448;44.960;-0.698;2022-08-19T07:42:07;101875.16;;;19.80;100.00
46718;BME280;32448;44.960;-0.698;2022-08-19T07:44:37;101878.66;;;19.96;100.00
46718;BME280;32448;44.960;-0.698;2022-08-19T07:47:06;101857.41;;;20.02;100.00
46718;BME280;32448;44.960;-0.698;2022-08-19T07:49:33;101869.66;;;20.24;100.00
46718;BME280;32448;44.960;-0.698;2022-08-19T07:52:08;101869.63;;;20.41;100.00
46718;BME280;32448;44.960;-0.698;2022-08-19T07:54:37;101858.94;;;20.52;100.00
46718;BME280;32448;44.960;-0.698;2022-08-19T07:57:04;101874.75;;;20.67;100.00
46718;BME280;32448;44.960;-0.698;2022-08-19T07:59:31;101872.06;;;20.75;100.00
46718;BME280;32448;44.960;-0.698;2022-08-19T08:01:58;101864.91;;;20.83;100.00
46718;BME280;32448;44.960;-0.698;2022-08-19T08:04:26;101877.09;;;21.10;100.00
46718;BME280;32448;44.960;-0.698;2022-08-19T08:07:11;101871.63;;;21.26;100.00
46718;BME280;32448;44.960;-0.698;2022-08-19T08:09:56;101870.63;;;21.38;100.00
46718;BME280;32448;44.960;-0.698;2022-08-19T08:12:25;101878.50;;;21.49;100.00
46718;BME280;32448;44.960;-0.698;2022-08-19T08:14:58;101869.50;;;21.62;100.00
46718;BME280;32448;44.960;-0.698;2022-08-19T08:17:28;101881.81;;;21.72;100.00
46718;BME280;32448;44.960;-0.698;2022-08-19T08:19:54;101871.16;;;21.73;100.00
46718;BME280;32448;44.960;-0.698;2022-08-19T08:22:21;101866.59;;;21.82;100.00
46718;BME280;32448;44.960;-0.698;2022-08-19T08:25:09;101874.41;;;21.97;100.00
46718;BME280;32448;44.960;-0.698;2022-08-19T08:27:37;101873.47;;;22.04;100.00
46718;BME280;32448;44.960;-0.698;2022-08-19T08:30:07;101879.56;;;22.10;100.00
46718;BME280;32448;44.960;-0.698;2022-08-19T08:32:39;101886.63;;;22.14;100.00
46718;BME280;32448;44.960;-0.698;2022-08-19T08:35:07;101890.19;;;22.13;100.00
46718;BME280;32448;44.960;-0.698;2022-08-19T08:37:33;101886.63;;;22.16;100.00
46718;BME280;32448;44.960;-0.698;2022-08-19T08:40:04;101875.94;;;22.19;100.00
46718;BME280;32448;44.960;-0.698;2022-08-19T08:42:34;101880.31;;;22.22;100.00
46718;BME280;32448;44.960;-0.698;2022-08-19T08:45:13;101884.69;;;22.27;100.00
46718;BME280;32448;44.960;-0.698;2022-08-19T08:47:44;101882.94;;;22.26;100.00
46718;BME280;32448;44.960;-0.698;2022-08-19T08:50:41;101887.44;;;22.21;100.00
46718;BME280;32448;44.960;-0.698;2022-08-19T08:53:10;101887.53;;;22.15;100.00
46718;BME280;32448;44.960;-0.698;2022-08-19T08:55:36;101887.38;;;22.26;100.00
46718;BME280;32448;44.960;-0.698;2022-08-19T08:58:12;101882.91;;;22.29;100.00
46718;BME280;32448;44.960;-0.698;2022-08-19T09:00:47;101885.41;;;22.41;100.00
46718;BME280;32448;44.960;-0.698;2022-08-19T09:03:21;101885.41;;;22.41;100.00
46718;BME280;32448;44.960;-0.698;2022-08-19T09:06:03;101883.63;;;22.40;100.00
46718;BME280;32448;44.960;-0.698;2022-08-19T09:08:34;101889.84;;;22.41;100.00
46718;BME280;32448;44.960;-0.698;2022-08-19T09:11:06;101884.66;;;22.30;100.00
46718;BME280;32448;44.960;-0.698;2022-08-19T09:16:19;101899.78;;;22.27;100.00
46718;BME280;32448;44.960;-0.698;2022-08-19T09:21:14;101888.31;;;22.22;100.00
46718;BME280;32448;44.960;-0.698;2022-08-19T09:23:42;101885.56;;;22.29;100.00
46718;BME280;32448;44.960;-0.698;2022-08-19T09:26:14;101892.38;;;22.50;100.00
46718;BME280;32448;44.960;-0.698;2022-08-19T09:28:45;101893.16;;;22.57;100.00
46718;BME280;32448;44.960;-0.698;2022-08-19T09:31:20;101895.63;;;22.69;100.00
46718;BME280;32448;44.960;-0.698;2022-08-19T09:33:57;101886.63;;;22.79;100.00
46718;BME280;32448;44.960;-0.698;2022-08-19T09:36:27;101887.28;;;22.93;100.00
46718;BME280;32448;44.960;-0.698;2022-08-19T09:39:05;101892.47;;;23.02;100.00
46718;BME280;32448;44.960;-0.698;2022-08-19T09:41:35;101884.38;;;23.08;100.00
46718;BME280;32448;44.960;-0.698;2022-08-19T09:44:04;101886.03;;;23.14;100.00
46718;BME280;32448;44.960;-0.698;2022-08-19T09:46:30;101887.66;;;23.24;100.00
46718;BME280;32448;44.960;-0.698;2022-08-19T09:49:01;101884.78;;;23.35;100.00
46718;BME280;32448;44.960;-0.698;2022-08-19T09:51:28;101899.69;;;23.46;100.00
46718;BME280;32448;44.960;-0.698;2022-08-19T09:54:03;101876.63;;;23.42;100.00
46718;BME280;32448;44.960;-0.698;2022-08-19T09:56:30;101895.13;;;23.53;100.00
46718;BME280;32448;44.960;-0.698;2022-08-19T09:58:58;101901.47;;;23.47;100.00
46718;BME280;32448;44.960;-0.698;2022-08-19T10:01:28;101896.34;;;23.35;100.00
46718;BME280;32448;44.960;-0.698;2022-08-19T10:03:57;101902.69;;;23.28;100.00
46718;BME280;32448;44.960;-0.698;2022-08-19T10:06:26;101882.53;;;23.12;100.00
46718;BME280;32448;44.960;-0.698;2022-08-19T10:08:56;101896.53;;;23.24;100.00
46718;BME280;32448;44.960;-0.698;2022-08-19T10:11:22;101896.56;;;23.23;100.00
46718;BME280;32448;44.960;-0.698;2022-08-19T10:13:48;101888.66;;;23.17;100.00
46718;BME280;32448;44.960;-0.698;2022-08-19T10:16:17;101888.56;;;23.23;100.00
46718;BME280;32448;44.960;-0.698;2022-08-19T10:18:45;101894.53;;;23.37;100.00
46718;BME280;32448;44.960;-0.698;2022-08-19T10:21:17;101891.03;;;23.32;100.00
46718;BME280;32448;44.960;-0.698;2022-08-19T10:23:46;101889.38;;;23.28;100.00
46718;BME280;32448;44.960;-0.698;2022-08-19T10:26:15;101864.69;;;23.15;100.00
46718;BME280;32448;44.960;-0.698;2022-08-19T10:28:41;101891.88;;;23.36;100.00
46718;BME280;32448;44.960;-0.698;2022-08-19T10:31:14;101883.91;;;23.34;100.00
46718;BME280;32448;44.960;-0.698;2022-08-19T10:33:41;101872.97;;;23.48;100.00
46718;BME280;32448;44.960;-0.698;2022-08-19T10:36:10;101864.81;;;23.57;100.00
46718;BME280;32448;44.960;-0.698;2022-08-19T10:38:37;101887.56;;;23.76;100.00
46718;BME280;32448;44.960;-0.698;2022-08-19T10:41:11;101876.81;;;23.81;100.00
46718;BME280;32448;44.960;-0.698;2022-08-19T10:43:37;101881.09;;;23.88;100.00
46718;BME280;32448;44.960;-0.698;2022-08-19T10:46:14;101882.69;;;23.98;100.00
46718;BME280;32448;44.960;-0.698;2022-08-19T10:48:41;101871.88;;;24.04;100.00
46718;BME280;32448;44.960;-0.698;2022-08-19T10:51:09;101869.75;;;24.20;100.00
46718;BME280;32448;44.960;-0.698;2022-08-19T10:53:54;101880.19;;;24.32;100.00
46718;BME280;32448;44.960;-0.698;2022-08-19T10:56:24;101887.41;;;24.30;100.00
46718;BME280;32448;44.960;-0.698;2022-08-19T10:59:08;101884.88;;;24.19;100.00
46718;BME280;32448;44.960;-0.698;2022-08-19T11:01:35;101875.28;;;24.11;100.00
46718;BME280;32448;44.960;-0.698;2022-08-19T11:04:02;101871.69;;;24.13;100.00
46718;BME280;32448;44.960;-0.698;2022-08-19T11:06:31;101878.53;;;24.28;100.00
46718;BME280;32448;44.960;-0.698;2022-08-19T11:08:57;101861.69;;;24.23;100.00
46718;BME280;32448;44.960;-0.698;2022-08-19T11:11:23;101870.00;;;24.51;100.00
46718;BME280;32448;44.960;-0.698;2022-08-19T11:13:49;101857.63;;;24.45;100.00
46718;BME280;32448;44.960;-0.698;2022-08-19T11:16:19;101872.22;;;24.69;100.00
46718;BME280;32448;44.960;-0.698;2022-08-19T11:18:51;101886.53;;;24.66;100.00
46718;BME280;32448;44.960;-0.698;2022-08-19T11:21:23;101875.78;;;24.70;100.00
46718;BME280;32448;44.960;-0.698;2022-08-19T11:23:52;101874.53;;;24.84;100.00
46718;BME280;32448;44.960;-0.698;2022-08-19T11:26:20;101870.72;;;24.96;100.00
46718;BME280;32448;44.960;-0.698;2022-08-19T11:28:46;101856.31;;;25.00;100.00
46718;BME280;32448;44.960;-0.698;2022-08-19T11:31:15;101866.88;;;25.06;100.00
46718;BME280;32448;44.960;-0.698;2022-08-19T11:33:42;101872.88;;;25.16;99.99
46718;BME280;32448;44.960;-0.698;2022-08-19T11:36:08;101871.13;;;25.13;97.30
46718;BME280;32448;44.960;-0.698;2022-08-19T11:38:34;101876.66;;;25.07;96.76
46718;BME280;32448;44.960;-0.698;2022-08-19T11:41:05;101863.19;;;25.10;99.50
46718;BME280;32448;44.960;-0.698;2022-08-19T11:43:32;101872.84;;;25.17;99.62
46718;BME280;32448;44.960;-0.698;2022-08-19T11:45:58;101874.75;;;25.45;100.00
46718;BME280;32448;44.960;-0.698;2022-08-19T11:48:24;101860.53;;;25.43;98.51
46718;BME280;32448;44.960;-0.698;2022-08-19T11:50:54;101860.28;;;25.52;98.77
46718;BME280;32448;44.960;-0.698;2022-08-19T11:53:24;101862.31;;;25.42;93.69
46718;BME280;32448;44.960;-0.698;2022-08-19T11:55:53;101851.84;;;25.34;93.79
46718;BME280;32448;44.960;-0.698;2022-08-19T11:58:24;101859.56;;;25.45;95.45
46718;BME280;32448;44.960;-0.698;2022-08-19T12:00:53;101857.75;;;25.47;91.91
46718;BME280;32448;44.960;-0.698;2022-08-19T12:03:19;101850.38;;;25.86;92.00
46718;BME280;32448;44.960;-0.698;2022-08-19T12:09:08;101845.53;;;26.58;88.90
46718;BME280;32448;44.960;-0.698;2022-08-19T12:11:35;101839.34;;;26.56;82.46
46718;BME280;32448;44.960;-0.698;2022-08-19T12:14:04;101841.06;;;26.58;84.95
46718;BME280;32448;44.960;-0.698;2022-08-19T12:16:31;101834.97;;;26.79;83.85
46718;BME280;32448;44.960;-0.698;2022-08-19T12:18:58;101850.41;;;26.73;82.49
46718;BME280;32448;44.960;-0.698;2022-08-19T12:21:31;101840.66;;;26.42;83.90
46718;BME280;32448;44.960;-0.698;2022-08-19T12:23:58;101847.78;;;26.43;84.96
46718;BME280;32448;44.960;-0.698;2022-08-19T12:26:26;101841.25;;;26.23;83.69
46718;BME280;32448;44.960;-0.698;2022-08-19T12:28:52;101850.63;;;26.08;86.01
46718;BME280;32448;44.960;-0.698;2022-08-19T12:31:22;101845.91;;;25.87;87.92
46718;BME280;32448;44.960;-0.698;2022-08-19T12:33:47;101850.00;;;25.69;90.30
46718;BME280;32448;44.960;-0.698;2022-08-19T12:36:20;101834.38;;;25.52;92.75
46718;BME280;32448;44.960;-0.698;2022-08-19T12:38:58;101840.63;;;25.53;93.77
46718;BME280;32448;44.960;-0.698;2022-08-19T12:41:25;101844.91;;;25.60;94.72
46718;BME280;32448;44.960;-0.698;2022-08-19T12:43:51;101851.13;;;25.62;91.20
46718;BME280;32448;44.960;-0.698;2022-08-19T12:46:19;101847.25;;;25.39;92.38
46718;BME280;32448;44.960;-0.698;2022-08-19T12:48:46;101838.41;;;25.36;98.38
46718;BME280;32448;44.960;-0.698;2022-08-19T12:51:15;101832.97;;;25.07;100.00